createdAt,value
2018-01-05T00:00:28.592Z,7.80
2018-01-05T00:02:56.164Z,7.90
2018-01-05T00:05:23.658Z,7.90
2018-01-05T00:07:51.231Z,7.90
2018-01-05T00:10:19.493Z,7.80
2018-01-05T00:12:47.012Z,7.80
2018-01-05T00:15:14.552Z,7.80
2018-01-05T00:17:42.064Z,7.80
2018-01-05T00:20:09.621Z,7.70
2018-01-05T00:22:37.140Z,7.70
2018-01-05T00:25:04.668Z,7.80
2018-01-05T00:27:32.167Z,7.70
2018-01-05T00:29:59.692Z,7.70
2018-01-05T00:32:27.182Z,7.70
2018-01-05T00:34:54.712Z,7.70
2018-01-05T00:37:22.218Z,7.70
2018-01-05T00:39:50.497Z,7.60
2018-01-05T00:42:18.763Z,7.60
2018-01-05T00:44:47.064Z,7.50
2018-01-05T00:47:14.562Z,7.50
2018-01-05T00:49:42.091Z,7.60
2018-01-05T00:52:09.586Z,7.60
2018-01-05T00:54:37.102Z,7.50
2018-01-05T00:57:04.602Z,7.50
2018-01-05T00:59:32.132Z,7.50
2018-01-05T01:01:59.629Z,7.50
2018-01-05T01:04:27.146Z,7.50
2018-01-05T01:06:55.416Z,7.50
2018-01-05T01:09:22.934Z,7.50
2018-01-05T01:11:51.229Z,7.50
2018-01-05T01:14:18.756Z,7.50
2018-01-05T01:16:46.274Z,7.50
2018-01-05T01:19:13.808Z,7.50
2018-01-05T01:21:41.328Z,7.50
2018-01-05T01:24:08.851Z,7.50
2018-01-05T01:26:36.382Z,7.60
2018-01-05T01:29:03.917Z,7.60
2018-01-05T01:31:32.187Z,7.50
2018-01-05T01:34:00.554Z,7.50
2018-01-05T01:36:28.069Z,7.50
2018-01-05T01:38:55.582Z,7.50
2018-01-05T01:41:23.085Z,7.50
2018-01-05T01:43:50.598Z,7.50
2018-01-05T01:46:18.099Z,7.40
2018-01-05T01:48:49.639Z,7.40
2018-01-05T01:51:17.152Z,7.50
2018-01-05T01:53:44.679Z,7.40
2018-01-05T01:56:12.188Z,7.50
2018-01-05T01:58:40.484Z,7.40
2018-01-05T02:01:07.988Z,7.40
2018-01-05T02:03:35.524Z,7.50
2018-01-05T02:06:03.031Z,7.40
2018-01-05T02:08:31.280Z,7.30
2018-01-05T02:10:58.786Z,7.40
2018-01-05T02:13:27.071Z,7.30
2018-01-05T02:15:54.574Z,7.20
2018-01-05T02:18:22.103Z,7.30
2018-01-05T02:20:49.623Z,7.30
2018-01-05T02:23:17.157Z,7.20
2018-01-05T02:25:44.654Z,7.20
2018-01-05T02:28:12.933Z,7.20
2018-01-05T02:30:41.217Z,7.20
2018-01-05T02:33:08.754Z,7.10
2018-01-05T02:35:37.022Z,7.20
2018-01-05T02:38:04.538Z,7.20
2018-01-05T02:40:32.042Z,7.20
2018-01-05T02:42:59.562Z,7.10
2018-01-05T02:45:27.073Z,7.20
2018-01-05T02:47:55.338Z,7.30
2018-01-05T02:50:23.613Z,7.20
2018-01-05T02:52:51.881Z,7.20
2018-01-05T02:55:19.403Z,7.20
2018-01-05T02:57:46.924Z,7.30
2018-01-05T03:00:14.461Z,7.30
2018-01-05T03:02:41.974Z,7.30
2018-01-05T03:05:09.498Z,7.40
2018-01-05T03:07:37.775Z,7.50
2018-01-05T03:10:06.072Z,7.50
2018-01-05T03:12:33.579Z,7.50
2018-01-05T03:15:01.113Z,7.40
2018-01-05T03:17:28.620Z,7.40
2018-01-05T03:19:56.912Z,7.50
2018-01-05T03:22:24.432Z,7.50
2018-01-05T03:24:51.969Z,7.50
2018-01-05T03:27:19.475Z,7.50
2018-01-05T03:29:47.777Z,7.50
2018-01-05T03:32:15.288Z,7.50
2018-01-05T03:34:43.573Z,7.60
2018-01-05T03:37:11.857Z,7.60
2018-01-05T03:39:40.141Z,7.60
2018-01-05T03:42:07.661Z,7.60
2018-01-05T03:44:35.196Z,7.60
2018-01-05T03:47:02.720Z,7.50
2018-01-05T03:49:30.254Z,7.70
2018-01-05T03:51:57.765Z,7.70
2018-01-05T03:54:25.294Z,7.70
2018-01-05T03:56:52.809Z,7.70
2018-01-05T03:59:20.337Z,7.70
2018-01-05T04:01:47.838Z,7.60
2018-01-05T04:04:15.369Z,7.60
2018-01-05T04:06:42.880Z,7.50
2018-01-05T04:09:11.180Z,7.20
2018-01-05T04:11:38.696Z,7.20
2018-01-05T04:14:06.219Z,7.10
2018-01-05T04:16:33.735Z,7.10
2018-01-05T04:19:02.029Z,7.10
2018-01-05T04:21:29.534Z,7.10
2018-01-05T04:23:57.063Z,7.10
2018-01-05T04:26:24.566Z,7.10
2018-01-05T04:28:52.854Z,7.00
2018-01-05T04:31:21.124Z,7.00
2018-01-05T04:33:49.419Z,7.00
2018-01-05T04:36:16.932Z,7.00
2018-01-05T04:38:44.464Z,7.00
2018-01-05T04:41:11.957Z,7.00
2018-01-05T04:43:39.478Z,7.10
2018-01-05T04:46:06.983Z,7.10
2018-01-05T04:48:34.501Z,7.10
2018-01-05T04:51:02.020Z,7.10
2018-01-05T04:53:30.301Z,7.10
2018-01-05T04:55:57.802Z,7.00
2018-01-05T04:58:25.323Z,7.00
2018-01-05T05:00:52.835Z,7.10
2018-01-05T05:03:20.355Z,7.20
2018-01-05T05:05:47.863Z,7.10
2018-01-05T05:08:15.397Z,7.10
2018-01-05T05:10:42.912Z,7.10
2018-01-05T05:13:10.426Z,7.10
2018-01-05T05:15:37.936Z,7.10
2018-01-05T05:18:05.464Z,7.00
2018-01-05T05:20:33.744Z,7.00
2018-01-05T05:23:02.006Z,6.90
2018-01-05T05:25:29.527Z,6.90
2018-01-05T05:27:57.040Z,6.80
2018-01-05T05:30:25.327Z,6.80
2018-01-05T05:32:52.822Z,6.70
2018-01-05T05:35:20.344Z,6.70
2018-01-05T05:37:47.843Z,6.70
2018-01-05T05:40:15.376Z,6.70
2018-01-05T05:42:42.884Z,6.70
2018-01-05T05:45:10.404Z,6.70
2018-01-05T05:47:37.912Z,6.70
2018-01-05T05:50:05.445Z,6.70
2018-01-05T05:52:32.962Z,6.70
2018-01-05T05:55:00.492Z,6.70
2018-01-05T05:57:28.776Z,6.70
2018-01-05T05:59:57.074Z,6.70
2018-01-05T06:02:24.574Z,6.80
2018-01-05T06:04:52.110Z,6.70
2018-01-05T06:07:19.607Z,6.70
2018-01-05T06:09:47.136Z,6.80
2018-01-05T06:12:14.644Z,6.80
2018-01-05T06:14:42.944Z,6.90
2018-01-05T06:17:10.433Z,6.80
2018-01-05T06:19:37.986Z,6.90
2018-01-05T06:22:05.501Z,7.00
2018-01-05T06:24:33.053Z,7.00
2018-01-05T06:27:01.316Z,7.10
2018-01-05T06:29:28.831Z,7.00
2018-01-05T06:31:56.349Z,7.20
2018-01-05T06:34:24.636Z,7.30
2018-01-05T06:36:52.144Z,7.30
2018-01-05T06:39:19.667Z,7.30
2018-01-05T06:41:47.161Z,7.40
2018-01-05T06:44:14.679Z,7.40
2018-01-05T06:46:42.177Z,7.50
2018-01-05T06:49:09.703Z,7.50
2018-01-05T06:51:37.202Z,7.60
2018-01-05T06:54:05.516Z,7.70
2018-01-05T06:56:33.031Z,7.70
2018-01-05T06:59:00.550Z,7.70
2018-01-05T07:01:28.064Z,7.70
2018-01-05T07:03:55.580Z,7.80
2018-01-05T07:06:23.100Z,7.90
2018-01-05T07:08:51.397Z,8.20
2018-01-05T07:11:18.889Z,8.20
2018-01-05T07:13:46.416Z,8.30
2018-01-05T07:16:13.924Z,8.30
2018-01-05T07:18:41.449Z,8.20
2018-01-05T07:21:08.951Z,8.30
2018-01-05T07:23:36.476Z,8.20
2018-01-05T07:26:03.975Z,8.20
2018-01-05T07:28:32.273Z,8.30
2018-01-05T07:30:59.789Z,8.30
2018-01-05T07:33:27.317Z,8.30
2018-01-05T07:35:54.816Z,8.30
2018-01-05T07:38:22.331Z,8.30
2018-01-05T07:40:49.835Z,8.40
2018-01-05T07:43:18.122Z,8.40
2018-01-05T07:45:46.416Z,8.30
2018-01-05T07:48:13.956Z,8.30
2018-01-05T07:50:42.218Z,8.30
2018-01-05T07:53:09.730Z,8.30
2018-01-05T07:55:37.227Z,8.30
2018-01-05T07:58:04.730Z,8.30
2018-01-05T08:00:32.265Z,8.30
2018-01-05T08:03:00.526Z,8.40
2018-01-05T08:05:28.057Z,8.30
2018-01-05T08:07:55.564Z,8.30
2018-01-05T08:10:23.852Z,8.30
2018-01-05T08:12:52.118Z,8.30
2018-01-05T08:15:20.406Z,8.30
2018-01-05T08:17:47.902Z,8.20
2018-01-05T08:20:15.423Z,8.30
2018-01-05T08:22:42.928Z,8.30
2018-01-05T08:25:10.442Z,8.20
2018-01-05T08:27:37.957Z,8.20
2018-01-05T08:30:05.484Z,8.30
2018-01-05T08:32:32.998Z,8.30
2018-01-05T08:35:01.274Z,8.20
2018-01-05T08:37:29.533Z,8.20
2018-01-05T08:39:57.065Z,8.20
2018-01-05T08:42:24.576Z,8.00
2018-01-05T08:44:52.129Z,7.80
2018-01-05T08:47:19.643Z,7.60
2018-01-05T08:49:47.163Z,7.50
2018-01-05T08:52:14.685Z,7.50
2018-01-05T08:54:42.224Z,7.40
2018-01-05T08:57:09.756Z,7.40
2018-01-05T08:59:37.274Z,7.40
2018-01-05T09:02:05.542Z,7.40
2018-01-05T09:04:33.830Z,7.40
2018-01-05T09:07:02.124Z,7.40
2018-01-05T09:09:29.661Z,7.40
2018-01-05T09:11:57.172Z,7.40
2018-01-05T09:14:25.479Z,7.50
2018-01-05T09:16:52.991Z,7.50
2018-01-05T09:19:20.522Z,7.50
2018-01-05T09:21:48.786Z,7.50
2018-01-05T09:24:17.085Z,7.50
2018-01-05T09:26:44.586Z,7.50
2018-01-05T09:29:12.126Z,7.50
2018-01-05T09:31:39.635Z,7.50
2018-01-05T09:34:07.932Z,7.60
2018-01-05T09:36:35.439Z,7.60
2018-01-05T09:39:02.959Z,7.60
2018-01-05T09:41:30.480Z,7.60
2018-01-05T09:43:58.003Z,7.60
2018-01-05T09:46:25.528Z,7.70
2018-01-05T09:48:53.048Z,7.80
2018-01-05T09:51:20.552Z,7.80
2018-01-05T09:53:48.062Z,7.90
2018-01-05T09:56:15.559Z,7.90
2018-01-05T09:58:43.078Z,7.90
2018-01-05T10:01:10.584Z,7.90
2018-01-05T10:03:38.102Z,7.90
2018-01-05T10:06:05.594Z,8.00
2018-01-05T10:08:33.103Z,8.00
2018-01-05T10:11:00.601Z,8.00
2018-01-05T10:13:28.893Z,8.00
2018-01-05T10:15:56.423Z,8.00
2018-01-05T10:18:24.725Z,8.00
2018-01-05T10:20:52.241Z,8.00
2018-01-05T10:23:19.785Z,8.00
2018-01-05T10:25:47.296Z,8.00
2018-01-05T10:28:14.812Z,8.10
2018-01-05T10:30:42.316Z,8.10
2018-01-05T10:33:09.836Z,8.10
2018-01-05T10:35:37.363Z,8.10
2018-01-05T10:38:04.887Z,8.00
2018-01-05T10:40:32.416Z,8.10
2018-01-05T10:42:59.925Z,8.10
2018-01-05T10:45:28.202Z,8.00
2018-01-05T10:47:55.717Z,8.00
2018-01-05T10:50:23.993Z,8.10
2018-01-05T10:52:52.277Z,8.20
2018-01-05T10:55:20.554Z,8.20
2018-01-05T10:57:48.834Z,8.20
2018-01-05T11:00:17.115Z,8.20
2018-01-05T11:02:44.616Z,8.10
2018-01-05T11:05:12.161Z,8.20
2018-01-05T11:07:40.447Z,8.20
2018-01-05T11:10:07.979Z,8.20
2018-01-05T11:12:35.493Z,8.10
2018-01-05T11:15:03.025Z,8.20
2018-01-05T11:17:30.541Z,8.20
2018-01-05T11:31:08.829Z,8.20
2018-01-05T11:33:36.352Z,8.20
2018-01-05T11:36:03.873Z,8.20
2018-01-05T11:38:32.188Z,8.20
2018-01-05T11:40:59.686Z,8.20
2018-01-05T11:43:27.211Z,8.20
2018-01-05T11:45:54.708Z,8.20
2018-01-05T11:48:22.222Z,8.20
2018-01-05T11:50:49.740Z,8.20
2018-01-05T11:53:17.254Z,8.30
2018-01-05T11:55:45.526Z,8.30
2018-01-05T11:58:13.844Z,8.30
2018-01-05T12:00:41.344Z,8.30
2018-01-05T12:03:08.868Z,8.40
2018-01-05T12:05:36.377Z,8.40
2018-01-05T12:08:04.707Z,8.40
2018-01-05T12:10:32.230Z,8.40
2018-01-05T12:12:59.731Z,8.40
2018-01-05T12:15:27.247Z,8.30
2018-01-05T12:17:54.757Z,8.30
2018-01-05T12:20:22.289Z,8.30
2018-01-05T12:22:49.794Z,8.30
2018-01-05T12:25:17.328Z,8.40
2018-01-05T12:27:44.842Z,8.40
2018-01-05T12:30:12.368Z,8.50
2018-01-05T12:32:39.866Z,8.50
2018-01-05T12:35:07.392Z,8.50
2018-01-05T12:37:35.655Z,8.50
2018-01-05T12:40:03.175Z,8.50
2018-01-05T12:42:30.674Z,8.50
2018-01-05T12:44:58.200Z,8.50
2018-01-05T12:47:25.712Z,8.40
2018-01-05T12:49:54.001Z,8.40
2018-01-05T12:52:21.516Z,8.40
2018-01-05T12:54:49.828Z,8.50
2018-01-05T12:57:17.341Z,8.40
2018-01-05T12:59:44.854Z,8.50
2018-01-05T13:02:12.345Z,8.50
2018-01-05T13:04:39.857Z,8.50
2018-01-05T13:07:08.122Z,8.50
2018-01-05T13:09:36.417Z,8.40
2018-01-05T13:12:03.928Z,8.40
2018-01-05T13:14:31.509Z,8.50
2018-01-05T13:16:58.998Z,8.40
2018-01-05T13:19:26.537Z,8.50
2018-01-05T13:21:54.806Z,8.50
2018-01-05T13:24:23.094Z,8.50
2018-01-05T13:26:51.373Z,8.50
2018-01-05T13:29:19.649Z,8.50
2018-01-05T13:31:47.910Z,8.50
2018-01-05T13:34:16.216Z,8.50
2018-01-05T13:36:43.795Z,8.40
2018-01-05T13:39:11.329Z,8.50
2018-01-05T13:41:38.818Z,8.40
2018-01-05T13:44:06.332Z,8.40
2018-01-05T13:46:34.599Z,8.40
2018-01-05T13:49:02.877Z,8.30
2018-01-05T13:51:31.142Z,8.30
2018-01-05T13:53:58.673Z,8.30
2018-01-05T13:56:26.193Z,8.30
2018-01-05T13:58:53.711Z,8.20
2018-01-05T14:01:21.214Z,8.20
2018-01-05T14:03:48.749Z,8.20
2018-01-05T14:06:17.024Z,8.20
2018-01-05T14:08:45.316Z,8.10
2018-01-05T14:11:12.845Z,8.10
2018-01-05T14:13:40.367Z,8.20
2018-01-05T14:16:08.035Z,8.20
2018-01-05T14:18:35.568Z,8.10
2018-01-05T14:21:03.083Z,8.10
2018-01-05T14:23:30.622Z,8.00
2018-01-05T14:25:58.123Z,8.00
2018-01-05T14:28:25.644Z,8.00
2018-01-05T14:30:53.152Z,8.00
2018-01-05T14:33:20.681Z,8.00
2018-01-05T14:35:48.947Z,8.00
2018-01-05T14:38:16.462Z,8.00
2018-01-05T14:40:43.978Z,8.10
2018-01-05T14:43:12.270Z,8.10
2018-01-05T14:45:39.791Z,8.00
2018-01-05T14:48:07.291Z,8.10
2018-01-05T14:50:34.806Z,8.00
2018-01-05T14:53:02.299Z,8.00
2018-01-05T14:55:29.819Z,7.90
2018-01-05T14:57:57.314Z,7.90
2018-01-05T15:00:24.829Z,7.80
2018-01-05T15:02:52.327Z,7.80
2018-01-05T15:05:20.616Z,7.80
2018-01-05T15:07:48.134Z,7.80
2018-01-05T15:10:15.661Z,7.80
2018-01-05T15:12:43.165Z,7.80
2018-01-05T15:15:11.442Z,7.80
2018-01-05T15:17:39.725Z,7.80
2018-01-05T15:20:07.998Z,7.80
2018-01-05T15:22:36.258Z,7.70
2018-01-05T15:25:03.763Z,7.60
2018-01-05T15:27:31.272Z,7.70
2018-01-05T15:29:58.795Z,7.60
2018-01-05T15:32:26.294Z,7.50
2018-01-05T15:34:53.816Z,7.40
2018-01-05T15:37:21.311Z,7.40
2018-01-05T15:39:48.845Z,7.30
2018-01-05T15:42:16.356Z,7.30
2018-01-05T15:44:43.884Z,7.20
2018-01-05T15:47:12.158Z,7.10
2018-01-05T15:49:39.687Z,7.10
2018-01-05T15:52:07.201Z,7.00
2018-01-05T15:54:34.724Z,7.00
2018-01-05T15:57:02.225Z,6.90
2018-01-05T15:59:29.758Z,6.80
2018-01-05T16:01:58.029Z,6.80
2018-01-05T16:04:26.314Z,6.70
2018-01-05T16:06:53.866Z,6.70
2018-01-05T16:09:22.150Z,6.60
2018-01-05T16:11:50.411Z,6.60
2018-01-05T16:14:18.711Z,6.60
2018-01-05T16:16:46.231Z,6.60
2018-01-05T16:19:13.764Z,6.70
2018-01-05T16:21:41.286Z,6.70
2018-01-05T16:24:08.834Z,6.70
2018-01-05T16:26:37.102Z,6.60
2018-01-05T16:29:05.400Z,6.60
2018-01-05T16:31:33.702Z,6.60
2018-01-05T16:34:01.437Z,6.60
2018-01-05T16:36:29.398Z,6.60
2018-01-05T16:38:57.043Z,6.60
2018-01-05T16:41:25.499Z,6.70
2018-01-05T16:43:53.062Z,6.70
2018-01-05T16:46:20.575Z,6.70
2018-01-05T16:48:48.149Z,6.70
2018-01-05T16:51:15.661Z,6.70
2018-01-05T16:53:43.206Z,6.70
2018-01-05T16:56:10.715Z,6.70
2018-01-05T16:58:38.299Z,6.70
2018-01-05T17:01:05.802Z,6.70
2018-01-05T17:03:34.105Z,6.70
2018-01-05T17:06:01.639Z,6.60
2018-01-05T17:08:30.015Z,6.60
2018-01-05T17:10:58.303Z,6.70
2018-01-05T17:13:26.596Z,6.70
2018-01-05T17:15:54.152Z,6.70
2018-01-05T17:18:21.682Z,6.80
2018-01-05T17:20:49.994Z,6.90
2018-01-05T17:23:17.950Z,6.90
2018-01-05T17:25:46.129Z,7.00
2018-01-05T17:28:14.081Z,7.10
2018-01-05T17:30:41.790Z,7.10
2018-01-05T17:33:09.855Z,7.10
2018-01-05T17:35:38.807Z,7.10
2018-01-05T17:38:06.696Z,7.00
2018-01-05T17:40:35.066Z,7.10
2018-01-05T17:43:04.030Z,7.00
2018-01-05T17:45:32.068Z,7.00
2018-01-05T17:48:01.233Z,7.00
2018-01-05T17:50:29.526Z,7.00
2018-01-05T17:52:58.736Z,7.00
2018-01-05T17:55:26.975Z,7.00
2018-01-05T17:57:55.212Z,6.90
2018-01-05T18:00:23.561Z,6.90
2018-01-05T18:02:51.821Z,6.90
2018-01-05T18:05:20.955Z,7.00
2018-01-05T18:07:49.352Z,7.00
2018-01-05T18:10:17.914Z,7.10
2018-01-05T18:12:46.258Z,7.10
2018-01-05T18:15:15.622Z,7.10
2018-01-05T18:17:43.915Z,7.10
2018-01-05T18:20:12.515Z,7.10
2018-01-05T18:22:41.802Z,7.20
2018-01-05T18:25:11.116Z,7.20
2018-01-05T18:27:40.285Z,7.20
2018-01-05T18:30:08.482Z,7.10
2018-01-05T18:32:36.823Z,7.20
2018-01-05T18:35:05.200Z,7.20
2018-01-05T18:37:32.854Z,7.20
2018-01-05T18:40:01.230Z,7.10
2018-01-05T18:42:29.248Z,7.10
2018-01-05T18:44:57.368Z,7.10
2018-01-05T18:47:25.389Z,7.20
2018-01-05T18:49:53.351Z,7.20
2018-01-05T18:52:21.796Z,7.20
2018-01-05T18:54:49.807Z,7.20
2018-01-05T18:57:18.128Z,7.20
2018-01-05T18:59:45.994Z,7.20
2018-01-05T19:02:14.309Z,7.20
2018-01-05T19:04:42.171Z,7.20
2018-01-05T19:07:10.391Z,7.20
2018-01-05T19:09:38.735Z,7.20
2018-01-05T19:12:06.351Z,7.20
2018-01-05T19:14:35.747Z,7.20
2018-01-05T19:17:04.202Z,7.20
2018-01-05T19:19:33.023Z,7.20
2018-01-05T19:22:01.131Z,7.20
2018-01-05T19:24:29.150Z,7.10
2018-01-05T19:26:57.440Z,7.20
2018-01-05T19:29:25.812Z,7.10
2018-01-05T19:31:54.139Z,7.10
2018-01-05T19:34:22.371Z,7.10
2018-01-05T19:36:50.836Z,7.10
2018-01-05T19:39:19.436Z,7.10
2018-01-05T19:41:47.968Z,7.10
2018-01-05T19:44:17.315Z,7.20
2018-01-05T19:46:46.726Z,7.20
2018-01-05T19:49:15.324Z,7.10
2018-01-05T19:51:43.718Z,7.20
2018-01-05T19:54:13.015Z,7.20
2018-01-05T19:56:41.547Z,7.10
2018-01-05T19:59:11.058Z,7.20
2018-01-05T20:01:40.512Z,7.20
2018-01-05T20:04:09.933Z,7.20
2018-01-05T20:06:39.221Z,7.10
2018-01-05T20:09:08.585Z,7.10
2018-01-05T20:11:37.278Z,7.10
2018-01-05T20:14:06.766Z,7.20
2018-01-05T20:16:35.260Z,7.20
2018-01-05T20:19:03.907Z,7.20
2018-01-05T20:21:32.497Z,7.20
2018-01-05T20:24:01.203Z,7.30
2018-01-05T20:26:29.741Z,7.40
2018-01-05T20:28:59.144Z,7.60
2018-01-05T20:31:28.465Z,7.60
2018-01-05T20:33:57.099Z,7.60
2018-01-05T20:36:25.925Z,7.60
2018-01-05T20:38:54.618Z,7.60
2018-01-05T20:41:23.218Z,7.70
2018-01-05T20:43:51.924Z,7.70
2018-01-05T20:46:20.504Z,7.70
2018-01-05T20:48:49.198Z,7.70
2018-01-05T20:51:17.777Z,7.70
2018-01-05T20:53:47.197Z,7.80
2018-01-05T20:56:15.792Z,7.80
2018-01-05T20:58:45.746Z,7.70
2018-01-05T21:01:14.356Z,7.70
2018-01-05T21:03:43.005Z,7.80
2018-01-05T21:06:11.598Z,7.80
2018-01-05T21:08:40.309Z,7.80
2018-01-05T21:11:09.096Z,7.80
2018-01-05T21:13:37.779Z,7.70
2018-01-05T21:16:06.350Z,7.70
2018-01-05T21:18:35.011Z,7.70
2018-01-05T21:21:03.598Z,7.70
2018-01-05T21:23:32.281Z,7.70
2018-01-05T21:26:00.885Z,7.60
2018-01-05T21:28:29.621Z,7.50
2018-01-05T21:30:58.960Z,7.50
2018-01-05T21:33:27.644Z,7.50
2018-01-05T21:35:56.248Z,7.50
2018-01-05T21:38:25.522Z,7.40
2018-01-05T21:40:54.139Z,7.30
2018-01-05T21:43:22.756Z,7.30
2018-01-05T21:45:52.366Z,7.30
2018-01-05T21:48:20.837Z,7.30
2018-01-05T21:50:49.600Z,7.20
2018-01-05T21:53:18.163Z,7.30
2018-01-05T21:55:46.764Z,7.20
2018-01-05T21:58:15.309Z,7.10
2018-01-05T22:00:43.986Z,7.10
2018-01-05T22:03:13.291Z,6.90
2018-01-05T22:05:42.709Z,6.90
2018-01-05T22:08:11.177Z,6.90
2018-01-05T22:10:40.576Z,6.90
2018-01-05T22:13:09.268Z,6.90
2018-01-05T22:15:38.700Z,6.90
2018-01-05T22:18:07.253Z,6.90
2018-01-05T22:20:36.710Z,6.80
2018-01-05T22:23:05.179Z,6.70
2018-01-05T22:25:33.799Z,6.80
2018-01-05T22:28:03.621Z,6.80
2018-01-05T22:30:33.103Z,6.70
2018-01-05T22:33:01.580Z,6.70
2018-01-05T22:35:30.187Z,6.70
2018-01-05T22:37:59.453Z,6.50
2018-01-05T22:40:28.081Z,6.50
2018-01-05T22:42:57.286Z,6.50
2018-01-05T22:45:26.580Z,6.50
2018-01-05T22:47:54.803Z,6.40
2018-01-05T22:50:23.366Z,6.50
2018-01-05T22:52:51.430Z,6.50
2018-01-05T22:55:20.365Z,6.40
2018-01-05T22:57:47.927Z,6.30
2018-01-05T23:00:15.562Z,6.30
2018-01-05T23:02:43.875Z,6.40
2018-01-05T23:05:13.079Z,6.40
2018-01-05T23:07:41.040Z,6.40
2018-01-05T23:10:08.750Z,6.30
2018-01-05T23:12:36.303Z,6.30
2018-01-05T23:15:03.815Z,6.30
2018-01-05T23:17:32.083Z,6.20
2018-01-05T23:19:59.602Z,6.20
2018-01-05T23:22:27.097Z,6.20
2018-01-05T23:24:54.669Z,6.10
2018-01-05T23:27:22.988Z,6.10
2018-01-05T23:29:50.510Z,6.10
2018-01-05T23:32:18.771Z,6.10
2018-01-05T23:34:46.308Z,6.00
2018-01-05T23:37:13.820Z,6.00
2018-01-05T23:39:41.334Z,6.00
2018-01-05T23:42:08.850Z,6.00
2018-01-05T23:44:36.389Z,6.00
2018-01-05T23:47:04.664Z,5.90
2018-01-05T23:49:32.951Z,5.90
2018-01-05T23:52:00.464Z,5.90
2018-01-05T23:54:27.974Z,5.90
2018-01-05T23:56:55.470Z,5.80
2018-01-05T23:59:22.992Z,5.90
